createdAt,value
2023-04-19T00:01:08.311Z,7.07
2023-04-19T00:03:35.063Z,4.43
2023-04-19T00:06:02.515Z,7.03
2023-04-19T00:08:29.221Z,6.07
2023-04-19T00:10:55.751Z,5.97
2023-04-19T00:13:22.333Z,5.37
2023-04-19T00:15:49.273Z,5.37
2023-04-19T00:18:15.991Z,4.57
2023-04-19T00:20:43.030Z,3.93
2023-04-19T00:23:09.651Z,6.37
2023-04-19T00:25:36.209Z,5.40
2023-04-19T00:28:02.777Z,6.80
2023-04-19T00:30:29.482Z,5.77
2023-04-19T00:32:56.084Z,4.47
2023-04-19T00:35:22.585Z,5.00
2023-04-19T00:37:49.105Z,4.93
2023-04-19T00:40:15.600Z,5.80
2023-04-19T00:42:42.387Z,7.00
2023-04-19T00:45:09.381Z,5.20
2023-04-19T00:47:36.234Z,6.17
2023-04-19T00:50:04.450Z,4.33
2023-04-19T00:52:32.694Z,6.03
2023-04-19T00:54:59.891Z,6.80
2023-04-19T00:57:26.457Z,5.73
2023-04-19T00:59:54.391Z,7.63
2023-04-19T01:02:22.300Z,3.23
2023-04-19T01:04:49.084Z,5.97
2023-04-19T01:07:15.748Z,4.77
2023-04-19T01:09:43.413Z,6.80
2023-04-19T01:12:10.031Z,7.60
2023-04-19T01:14:36.626Z,8.93
2023-04-19T01:17:03.119Z,6.43
2023-04-19T01:19:29.637Z,7.57
2023-04-19T01:21:58.382Z,4.70
2023-04-19T01:24:24.869Z,7.30
2023-04-19T01:26:51.501Z,6.50
2023-04-19T01:29:18.895Z,5.40
2023-04-19T01:31:49.316Z,5.43
2023-04-19T01:34:18.785Z,4.50
2023-04-19T01:36:45.309Z,6.13
2023-04-19T01:39:12.009Z,5.27
2023-04-19T01:41:38.486Z,6.67
2023-04-19T01:44:04.977Z,5.60
2023-04-19T01:46:31.486Z,7.83
2023-04-19T01:48:58.066Z,5.80
2023-04-19T01:51:24.545Z,7.00
2023-04-19T01:53:53.767Z,6.53
2023-04-19T01:56:21.086Z,6.03
2023-04-19T01:58:47.724Z,6.00
2023-04-19T02:01:14.276Z,5.17
2023-04-19T02:03:41.042Z,6.87
2023-04-19T02:06:12.583Z,6.40
2023-04-19T02:08:42.031Z,5.87
2023-04-19T02:11:14.475Z,7.47
2023-04-19T02:13:42.005Z,5.57
2023-04-19T02:16:09.181Z,5.40
2023-04-19T02:18:38.491Z,4.27
2023-04-19T02:21:06.295Z,6.37
2023-04-19T02:23:32.829Z,7.70
2023-04-19T02:25:59.387Z,4.93
2023-04-19T02:28:25.884Z,6.67
2023-04-19T02:30:52.344Z,8.80
2023-04-19T02:33:18.923Z,5.37
2023-04-19T02:35:45.514Z,5.90
2023-04-19T02:38:12.025Z,7.30
2023-04-19T02:40:38.533Z,4.60
2023-04-19T02:43:05.107Z,5.47
2023-04-19T02:45:31.642Z,5.77
2023-04-19T02:47:59.507Z,5.57
2023-04-19T02:50:27.268Z,8.00
2023-04-19T02:52:53.807Z,6.27
2023-04-19T02:55:20.394Z,6.93
2023-04-19T02:57:46.885Z,4.77
2023-04-19T03:00:14.042Z,8.37
2023-04-19T03:02:41.418Z,5.00
2023-04-19T03:05:08.931Z,6.07
2023-04-19T03:07:35.713Z,5.53
2023-04-19T03:10:02.251Z,6.70
2023-04-19T03:12:28.804Z,3.40
2023-04-19T03:14:55.317Z,3.57
2023-04-19T03:17:21.832Z,5.53
2023-04-19T03:19:48.428Z,6.30
2023-04-19T03:22:14.924Z,6.67
2023-04-19T03:24:41.607Z,4.93
2023-04-19T03:27:08.194Z,3.90
2023-04-19T03:29:34.699Z,4.77
2023-04-19T03:32:01.257Z,6.13
2023-04-19T03:34:27.819Z,6.93
2023-04-19T03:36:54.329Z,5.37
2023-04-19T03:39:20.858Z,4.90
2023-04-19T03:41:47.419Z,5.03
2023-04-19T03:44:14.165Z,7.77
2023-04-19T03:46:40.962Z,3.60
2023-04-19T03:49:07.625Z,4.00
2023-04-19T03:51:34.181Z,3.50
2023-04-19T03:54:00.712Z,5.87
2023-04-19T03:56:27.221Z,5.10
2023-04-19T03:58:53.760Z,6.13
2023-04-19T04:01:21.351Z,6.50
2023-04-19T04:03:48.298Z,6.63
2023-04-19T04:06:15.119Z,5.10
2023-04-19T04:08:41.635Z,3.77
2023-04-19T04:11:08.134Z,7.30
2023-04-19T04:13:34.596Z,6.07
2023-04-19T04:16:01.145Z,5.53
2023-04-19T04:18:28.693Z,5.17
2023-04-19T04:20:55.675Z,8.63
2023-04-19T04:23:22.293Z,4.90
2023-04-19T04:25:56.128Z,5.13
2023-04-19T04:28:23.032Z,5.27
2023-04-19T04:30:49.496Z,7.00
2023-04-19T04:33:16.219Z,5.17
2023-04-19T04:35:46.598Z,6.17
2023-04-19T04:38:23.479Z,5.57
2023-04-19T04:40:54.915Z,5.03
2023-04-19T04:43:25.782Z,6.07
2023-04-19T04:45:55.725Z,4.33
2023-04-19T04:48:22.395Z,4.40
2023-04-19T04:50:48.942Z,6.00
2023-04-19T04:53:15.713Z,8.90
2023-04-19T04:55:42.146Z,4.97
2023-04-19T04:58:08.647Z,5.57
2023-04-19T05:00:37.912Z,4.00
2023-04-19T05:03:04.578Z,5.63
2023-04-19T05:05:31.275Z,6.07
2023-04-19T05:08:09.607Z,3.97
2023-04-19T05:10:36.139Z,4.37
2023-04-19T05:13:02.617Z,7.03
2023-04-19T05:15:29.144Z,5.40
2023-04-19T05:17:55.617Z,5.67
2023-04-19T05:20:22.074Z,7.77
2023-04-19T05:22:48.528Z,3.33
2023-04-19T05:25:14.973Z,5.33
2023-04-19T05:27:41.435Z,6.13
2023-04-19T05:30:22.853Z,7.03
2023-04-19T05:32:49.867Z,4.70
2023-04-19T05:35:22.131Z,5.50
2023-04-19T05:37:48.706Z,5.87
2023-04-19T05:40:15.305Z,5.30
2023-04-19T05:42:41.779Z,4.53
2023-04-19T05:45:08.699Z,4.87
2023-04-19T05:47:35.264Z,5.87
2023-04-19T05:50:01.854Z,8.03
2023-04-19T05:52:28.318Z,4.80
2023-04-19T05:54:54.983Z,5.87
2023-04-19T05:57:21.526Z,5.63
2023-04-19T05:59:48.108Z,6.63
2023-04-19T06:02:14.633Z,6.20
2023-04-19T06:04:41.644Z,5.70
2023-04-19T06:07:17.755Z,5.53
2023-04-19T06:09:55.048Z,8.90
2023-04-19T06:12:21.533Z,6.43
2023-04-19T06:14:47.991Z,4.80
2023-04-19T06:17:16.551Z,3.30
2023-04-19T06:19:43.125Z,9.17
2023-04-19T06:25:58.920Z,4.87
2023-04-19T06:28:25.770Z,9.67
2023-04-19T06:30:52.214Z,3.47
2023-04-19T06:33:18.787Z,6.07
2023-04-19T06:35:45.277Z,7.87
2023-04-19T06:38:11.741Z,5.43
2023-04-19T06:40:38.358Z,5.33
2023-04-19T06:43:05.895Z,4.40
2023-04-19T06:45:32.582Z,3.93
2023-04-19T06:47:59.170Z,6.20
2023-04-19T06:50:25.880Z,6.43
2023-04-19T06:52:52.313Z,5.60
2023-04-19T06:55:18.751Z,7.10
2023-04-19T06:57:45.237Z,4.50
2023-04-19T07:00:12.175Z,4.33
2023-04-19T07:02:38.815Z,5.83
2023-04-19T07:05:05.575Z,8.50
2023-04-19T07:07:33.295Z,7.87
2023-04-19T07:09:59.754Z,7.07
2023-04-19T07:12:26.201Z,4.70
2023-04-19T07:14:56.484Z,12.00
2023-04-19T07:17:23.328Z,5.87
2023-04-19T07:19:49.951Z,10.80
2023-04-19T07:22:16.412Z,6.20
2023-04-19T07:24:44.613Z,4.57
2023-04-19T07:27:11.153Z,4.03
2023-04-19T07:29:37.685Z,8.47
2023-04-19T07:32:04.793Z,6.73
2023-04-19T07:34:31.261Z,6.23
2023-04-19T07:36:57.981Z,5.70
2023-04-19T07:39:24.508Z,3.77
2023-04-19T07:41:50.960Z,5.37
2023-04-19T07:44:17.830Z,4.10
2023-04-19T07:46:47.282Z,5.27
2023-04-19T07:49:13.791Z,5.53
2023-04-19T07:51:40.344Z,4.53
2023-04-19T07:54:07.050Z,13.03
2023-04-19T07:56:36.127Z,6.20
2023-04-19T07:59:08.155Z,5.37
2023-04-19T08:01:35.850Z,6.73
2023-04-19T08:04:03.015Z,6.53
2023-04-19T08:06:30.774Z,4.67
2023-04-19T08:08:57.326Z,3.97
2023-04-19T08:11:25.068Z,5.90
2023-04-19T08:14:26.022Z,4.33
2023-04-19T08:19:07.393Z,4.27
2023-04-19T08:21:40.475Z,8.03
2023-04-19T08:24:08.430Z,5.67
2023-04-19T08:26:34.947Z,3.83
2023-04-19T08:29:01.698Z,5.60
2023-04-19T08:31:46.600Z,4.43
2023-04-19T08:34:13.245Z,4.80
2023-04-19T08:36:48.481Z,5.73
2023-04-19T08:39:31.724Z,6.37
2023-04-19T08:42:28.835Z,5.23
2023-04-19T08:47:44.741Z,4.03
2023-04-19T08:50:31.233Z,7.90
2023-04-19T08:53:11.980Z,5.97
2023-04-19T08:55:59.302Z,6.87
2023-04-19T08:58:44.524Z,5.17
2023-04-19T09:01:33.125Z,6.97
2023-04-19T09:04:21.057Z,4.50
2023-04-19T09:06:48.695Z,7.30
2023-04-19T09:11:48.404Z,5.77
2023-04-19T09:14:15.607Z,3.57
2023-04-19T09:16:42.620Z,5.33
2023-04-19T09:19:27.340Z,7.43
2023-04-19T09:21:55.355Z,5.80
2023-04-19T09:25:02.599Z,5.70
2023-04-19T09:27:27.432Z,6.30
2023-04-19T09:29:55.418Z,8.13
2023-04-19T09:32:22.363Z,4.27
2023-04-19T09:34:53.375Z,5.67
2023-04-19T09:37:38.391Z,5.73
2023-04-19T09:40:21.683Z,6.97
2023-04-19T09:48:00.553Z,5.43
2023-04-19T09:52:53.988Z,5.20
2023-04-19T09:57:51.813Z,9.57
2023-04-19T10:00:18.360Z,4.97
2023-04-19T10:02:45.453Z,4.73
2023-04-19T10:05:20.556Z,7.17
2023-04-19T10:07:49.311Z,6.03
2023-04-19T10:10:20.977Z,5.10
2023-04-19T10:13:11.564Z,5.40
2023-04-19T10:18:07.894Z,7.97
2023-04-19T10:20:39.692Z,5.37
2023-04-19T10:23:07.452Z,7.20
2023-04-19T10:25:36.643Z,6.90
2023-04-19T10:28:03.187Z,6.13
2023-04-19T10:30:29.973Z,5.83
2023-04-19T10:32:57.309Z,7.37
2023-04-19T10:35:24.904Z,5.23
2023-04-19T10:38:09.444Z,14.53
2023-04-19T10:40:51.040Z,10.43
2023-04-19T10:43:18.425Z,11.07
2023-04-19T10:45:46.082Z,5.13
2023-04-19T10:48:30.628Z,6.70
2023-04-19T10:51:00.317Z,8.37
2023-04-19T10:53:45.188Z,5.67
2023-04-19T10:56:11.672Z,7.03
2023-04-19T10:58:57.063Z,5.60
2023-04-19T11:01:37.424Z,7.17
2023-04-19T11:04:04.253Z,6.83
2023-04-19T11:06:31.065Z,5.97
2023-04-19T11:08:57.894Z,6.40
2023-04-19T11:11:27.459Z,6.20
2023-04-19T11:13:55.580Z,5.73
2023-04-19T11:16:28.471Z,8.23
2023-04-19T11:19:04.711Z,7.87
2023-04-19T11:21:32.259Z,5.90
2023-04-19T11:24:11.024Z,6.83
2023-04-19T11:26:37.671Z,6.20
2023-04-19T11:29:04.621Z,6.80
2023-04-19T11:31:34.735Z,6.27
2023-04-19T11:34:02.527Z,6.20
2023-04-19T11:36:29.026Z,6.43
2023-04-19T11:42:43.795Z,7.33
2023-04-19T11:45:18.688Z,5.83
2023-04-19T11:47:52.937Z,5.80
2023-04-19T11:50:33.391Z,5.93
2023-04-19T11:53:00.426Z,8.03
2023-04-19T11:55:26.882Z,11.93
2023-04-19T11:58:02.379Z,5.60
2023-04-19T12:00:29.209Z,7.23
2023-04-19T12:03:04.626Z,6.63
2023-04-19T12:05:31.430Z,6.50
2023-04-19T12:08:02.171Z,8.07
2023-04-19T12:10:28.836Z,6.83
2023-04-19T12:12:55.412Z,6.27
2023-04-19T12:15:24.514Z,6.00
2023-04-19T12:18:02.199Z,7.10
2023-04-19T12:20:35.080Z,8.70
2023-04-19T12:23:01.625Z,5.17
2023-04-19T12:25:31.557Z,7.10
2023-04-19T12:27:58.077Z,7.60
2023-04-19T12:30:24.535Z,5.63
2023-04-19T12:32:52.679Z,12.60
2023-04-19T12:35:19.375Z,5.30
2023-04-19T12:37:46.231Z,7.20
2023-04-19T12:40:13.264Z,6.33
2023-04-19T12:42:39.762Z,6.40
2023-04-19T12:45:06.905Z,7.20
2023-04-19T12:47:33.840Z,10.03
2023-04-19T12:50:01.906Z,6.90
2023-04-19T12:52:28.400Z,8.37
2023-04-19T12:54:54.821Z,4.83
2023-04-19T12:57:21.290Z,7.30
2023-04-19T12:59:47.916Z,5.63
2023-04-19T13:02:14.548Z,10.90
2023-04-19T13:04:41.218Z,4.47
2023-04-19T13:07:07.789Z,8.13
2023-04-19T13:09:34.208Z,6.63
2023-04-19T13:12:01.379Z,4.40
2023-04-19T13:14:28.282Z,6.90
2023-04-19T13:16:54.902Z,5.90
2023-04-19T13:19:21.326Z,8.57
2023-04-19T13:21:48.986Z,5.70
2023-04-19T13:24:15.833Z,7.93
2023-04-19T13:26:42.696Z,10.07
2023-04-19T13:29:09.177Z,8.20
2023-04-19T13:31:35.771Z,9.27
2023-04-19T13:34:02.373Z,8.23
2023-04-19T13:36:28.867Z,5.77
2023-04-19T13:38:55.362Z,6.60
2023-04-19T13:41:21.780Z,8.47
2023-04-19T13:43:48.436Z,6.03
2023-04-19T13:46:15.361Z,7.83
2023-04-19T13:48:41.874Z,6.63
2023-04-19T13:51:08.356Z,6.63
2023-04-19T13:53:34.866Z,5.07
2023-04-19T13:56:01.339Z,4.67
2023-04-19T13:58:27.903Z,7.73
2023-04-19T14:00:54.409Z,12.50
2023-04-19T14:03:22.272Z,5.47
2023-04-19T14:05:48.817Z,7.57
2023-04-19T14:08:15.258Z,8.57
2023-04-19T14:10:41.826Z,7.53
2023-04-19T14:13:08.314Z,9.70
2023-04-19T14:15:34.818Z,7.50
2023-04-19T14:18:02.598Z,5.23
2023-04-19T14:20:29.156Z,5.93
2023-04-19T14:22:56.200Z,7.20
2023-04-19T14:25:22.655Z,15.30
2023-04-19T14:27:49.106Z,8.20
2023-04-19T14:30:15.657Z,8.17
2023-04-19T14:32:42.257Z,8.23
2023-04-19T14:35:14.756Z,7.93
2023-04-19T14:37:41.288Z,6.33
2023-04-19T14:40:08.103Z,7.33
2023-04-19T14:42:37.550Z,7.63
2023-04-19T14:45:04.189Z,10.10
2023-04-19T14:47:30.711Z,8.87
2023-04-19T14:49:57.244Z,9.60
2023-04-19T14:52:30.244Z,7.17
2023-04-19T14:54:57.765Z,5.20
2023-04-19T14:57:25.758Z,10.93
2023-04-19T15:00:00.572Z,6.30
2023-04-19T15:02:27.495Z,7.43
2023-04-19T15:04:54.315Z,7.60
2023-04-19T15:07:21.563Z,8.07
2023-04-19T15:09:48.025Z,6.47
2023-04-19T15:12:14.471Z,9.90
2023-04-19T15:14:43.590Z,7.53
2023-04-19T15:17:10.305Z,7.97
2023-04-19T15:19:38.534Z,8.83
2023-04-19T15:22:05.153Z,8.77
2023-04-19T15:24:33.666Z,9.00
2023-04-19T15:30:56.765Z,6.13
2023-04-19T15:33:23.234Z,7.40
2023-04-19T15:35:51.106Z,5.67
2023-04-19T15:38:17.557Z,8.00
2023-04-19T15:40:44.013Z,8.80
2023-04-19T15:43:10.451Z,8.57
2023-04-19T15:45:36.880Z,9.17
2023-04-19T15:48:14.255Z,8.37
2023-04-19T15:50:44.098Z,8.67
2023-04-19T15:53:11.002Z,9.50
2023-04-19T15:55:37.547Z,9.10
2023-04-19T15:58:04.314Z,8.53
2023-04-19T16:00:30.877Z,5.80
2023-04-19T16:02:57.680Z,7.20
2023-04-19T16:05:24.318Z,13.10
2023-04-19T16:08:04.244Z,8.77
2023-04-19T16:10:36.915Z,9.77
2023-04-19T16:13:04.131Z,8.37
2023-04-19T16:15:30.612Z,9.30
2023-04-19T16:18:13.114Z,9.20
2023-04-19T16:20:40.133Z,10.90
2023-04-19T16:23:06.619Z,6.63
2023-04-19T16:25:38.587Z,5.80
2023-04-19T16:28:05.157Z,7.30
2023-04-19T16:30:31.619Z,7.90
2023-04-19T16:32:58.553Z,8.53
2023-04-19T16:35:25.536Z,8.87
2023-04-19T16:37:54.033Z,5.50
2023-04-19T16:40:22.328Z,8.07
2023-04-19T16:42:48.914Z,6.43
2023-04-19T16:45:15.684Z,11.10
2023-04-19T16:47:45.764Z,8.40
2023-04-19T16:50:13.012Z,11.43
2023-04-19T16:52:39.697Z,8.83
2023-04-19T16:55:06.552Z,9.37
2023-04-19T16:57:33.094Z,8.27
2023-04-19T16:59:59.780Z,9.57
2023-04-19T17:02:26.430Z,14.63
2023-04-19T17:04:53.170Z,8.70
2023-04-19T17:07:19.791Z,12.13
2023-04-19T17:09:46.407Z,11.07
2023-04-19T17:12:12.918Z,18.70
2023-04-19T17:14:39.717Z,21.20
2023-04-19T17:17:06.259Z,25.53
2023-04-19T17:19:32.739Z,23.10
2023-04-19T17:22:05.039Z,13.87
2023-04-19T17:24:32.431Z,17.97
2023-04-19T17:26:59.239Z,24.60
2023-04-19T17:29:25.917Z,13.20
2023-04-19T17:31:58.335Z,13.37
2023-04-19T17:34:24.797Z,10.23
2023-04-19T17:36:51.534Z,11.93
2023-04-19T17:39:18.350Z,10.77
2023-04-19T17:41:45.095Z,12.53
2023-04-19T17:44:12.478Z,12.43
2023-04-19T17:46:39.792Z,16.27
2023-04-19T17:49:06.557Z,16.40
2023-04-19T17:51:33.164Z,14.80
2023-04-19T17:54:00.048Z,11.87
2023-04-19T17:56:26.875Z,17.90
2023-04-19T17:58:53.331Z,15.73
2023-04-19T18:01:19.821Z,19.47
2023-04-19T18:04:05.175Z,17.37
2023-04-19T18:06:32.186Z,18.43
2023-04-19T18:09:00.903Z,12.80
2023-04-19T18:11:28.719Z,13.13
2023-04-19T18:14:01.309Z,12.70
2023-04-19T18:16:27.869Z,12.57
2023-04-19T18:18:54.776Z,20.13
2023-04-19T18:21:21.520Z,40.50
2023-04-19T18:23:47.960Z,20.20
2023-04-19T18:26:14.407Z,25.67
2023-04-19T18:28:41.052Z,20.00
2023-04-19T18:31:08.203Z,66.10
2023-04-19T18:33:34.835Z,65.23
2023-04-19T18:36:01.337Z,48.60
2023-04-19T18:38:27.896Z,83.50
2023-04-19T18:40:54.400Z,70.43
2023-04-19T18:43:20.913Z,55.63
2023-04-19T18:45:53.097Z,53.20
2023-04-19T18:48:19.607Z,36.27
2023-04-19T18:50:49.694Z,17.23
2023-04-19T18:53:16.162Z,15.17
2023-04-19T18:55:42.717Z,12.67
2023-04-19T19:01:57.623Z,12.80
2023-04-19T19:06:53.815Z,9.83
2023-04-19T19:09:22.727Z,16.17
2023-04-19T19:11:59.275Z,25.63
2023-04-19T19:14:35.663Z,10.23
2023-04-19T19:17:02.664Z,10.40
2023-04-19T19:19:29.513Z,10.80
2023-04-19T19:22:25.171Z,14.87
2023-04-19T19:24:54.106Z,13.87
2023-04-19T19:27:20.657Z,14.50
2023-04-19T19:29:47.287Z,10.43
2023-04-19T19:32:14.191Z,11.27
2023-04-19T19:34:53.873Z,16.83
2023-04-19T19:37:22.974Z,9.13
2023-04-19T19:39:49.785Z,11.57
2023-04-19T19:42:16.923Z,9.20
2023-04-19T19:44:43.501Z,10.87
2023-04-19T19:47:11.076Z,11.83
2023-04-19T19:52:07.738Z,12.17
2023-04-19T19:54:34.361Z,18.03
2023-04-19T19:57:48.409Z,12.23
2023-04-19T19:59:54.289Z,11.20
2023-04-19T20:02:22.174Z,13.87
2023-04-19T20:04:49.190Z,14.77
2023-04-19T20:09:45.781Z,14.90
2023-04-19T20:12:13.801Z,10.20
2023-04-19T20:14:40.908Z,10.97
2023-04-19T20:17:07.443Z,7.50
2023-04-19T20:19:34.132Z,10.20
2023-04-19T20:22:00.779Z,8.60
2023-04-19T20:24:27.328Z,10.00
2023-04-19T20:26:53.852Z,9.67
2023-04-19T20:29:20.390Z,8.70
2023-04-19T20:31:46.832Z,7.93
2023-04-19T20:34:13.321Z,6.97
2023-04-19T20:36:40.465Z,7.20
2023-04-19T20:39:09.764Z,7.50
2023-04-19T20:41:36.590Z,7.43
2023-04-19T20:44:04.667Z,6.40
2023-04-19T20:46:31.235Z,7.30
2023-04-19T20:48:57.763Z,7.53
2023-04-19T20:51:24.234Z,7.13
2023-04-19T20:53:50.773Z,9.27
2023-04-19T20:56:17.276Z,7.00
2023-04-19T20:58:45.285Z,8.80
2023-04-19T21:01:14.338Z,7.00
2023-04-19T21:03:41.067Z,16.40
2023-04-19T21:06:07.591Z,17.57
2023-04-19T21:08:34.080Z,16.57
2023-04-19T21:11:00.767Z,16.97
2023-04-19T21:13:27.174Z,9.97
2023-04-19T21:15:53.747Z,9.33
2023-04-19T21:18:20.580Z,8.37
2023-04-19T21:20:47.007Z,5.83
2023-04-19T21:23:13.523Z,9.30
2023-04-19T21:25:40.041Z,6.70
2023-04-19T21:28:06.520Z,9.30
2023-04-19T21:30:33.077Z,9.77
2023-04-19T21:32:59.712Z,6.13
2023-04-19T21:35:26.333Z,6.13
2023-04-19T21:37:52.796Z,8.23
2023-04-19T21:40:19.361Z,8.80
2023-04-19T21:42:45.813Z,10.20
2023-04-19T21:45:12.266Z,9.03
2023-04-19T21:47:38.870Z,6.97
2023-04-19T21:50:05.693Z,6.93
2023-04-19T21:52:32.239Z,9.67
2023-04-19T21:54:58.796Z,8.93
2023-04-19T21:57:27.047Z,6.27
2023-04-19T21:59:53.712Z,7.03
2023-04-19T22:02:20.280Z,11.17
2023-04-19T22:04:46.768Z,6.77
2023-04-19T22:07:13.249Z,8.07
2023-04-19T22:09:39.797Z,10.93
2023-04-19T22:12:06.251Z,8.43
2023-04-19T22:14:32.640Z,7.70
2023-04-19T22:17:02.487Z,7.13
2023-04-19T22:19:29.365Z,5.67
2023-04-19T22:21:55.861Z,8.40
2023-04-19T22:24:22.710Z,7.80
2023-04-19T22:26:50.263Z,6.23
2023-04-19T22:29:17.322Z,6.23
2023-04-19T22:31:44.132Z,7.00
2023-04-19T22:34:10.625Z,8.17
2023-04-19T22:36:37.054Z,7.33
2023-04-19T22:39:04.685Z,8.70
2023-04-19T22:41:31.678Z,7.67
2023-04-19T22:44:13.372Z,9.17
2023-04-19T22:46:39.833Z,7.03
2023-04-19T22:49:06.485Z,9.63
2023-04-19T22:51:36.776Z,11.83
2023-04-19T22:54:03.553Z,7.20
2023-04-19T22:56:30.561Z,8.30
2023-04-19T22:58:57.319Z,8.00
2023-04-19T23:01:23.853Z,7.20
2023-04-19T23:03:50.448Z,7.07
2023-04-19T23:06:18.026Z,10.13
2023-04-19T23:08:44.599Z,7.63
2023-04-19T23:11:11.054Z,8.10
2023-04-19T23:13:41.420Z,7.27
2023-04-19T23:16:10.948Z,8.73
2023-04-19T23:18:46.850Z,6.47
2023-04-19T23:21:13.291Z,7.07
2023-04-19T23:23:39.736Z,6.80
2023-04-19T23:26:06.321Z,6.70
2023-04-19T23:28:32.760Z,8.33
2023-04-19T23:30:59.281Z,9.00
2023-04-19T23:33:25.845Z,9.57
2023-04-19T23:35:52.313Z,8.63
2023-04-19T23:38:19.276Z,8.80
2023-04-19T23:40:45.934Z,6.70
2023-04-19T23:43:12.383Z,11.47
2023-04-19T23:45:39.022Z,8.70
2023-04-19T23:48:05.741Z,9.50
2023-04-19T23:50:32.282Z,7.67
2023-04-19T23:52:58.723Z,8.87
2023-04-19T23:55:25.560Z,8.57
2023-04-19T23:57:57.786Z,8.07
